Time;durP1;ratioP1;P1;durP2;ratioP2;P2;SDS_P1;SDS_P2;PMS_P1;PMS_P2;Temp;Humidity;BMP_temperature;BMP_pressure;BME280_temperature;BME280_humidity;BME280_pressure;Samples;Min_cycle;Max_cycle;Signal;HPM_P1;HPM_P2
2022/07/16 00:01:58;;;;;;;4.40;4.00;;;17.00;34.10;;;;;;5106251;28;20442;-81
2022/07/16 00:04:25;;;;;;;5.00;3.83;;;16.90;34.70;;;;;;5116840;28;20471;-82
2022/07/16 00:06:53;;;;;;;5.50;4.40;;;16.80;35.60;;;;;;5103638;28;20459;-81
2022/07/16 00:09:20;;;;;;;6.10;4.57;;;16.70;35.70;;;;;;5101768;28;20527;-81
2022/07/16 00:11:47;;;;;;;4.47;4.03;;;16.60;35.60;;;;;;5102956;28;20429;-82
2022/07/16 00:14:14;;;;;;;5.97;4.30;;;16.60;35.60;;;;;;5102922;28;20461;-82
2022/07/16 00:16:41;;;;;;;6.27;4.00;;;16.60;35.60;;;;;;5103897;28;20467;-82
2022/07/16 00:19:18;;;;;;;6.30;4.33;;;16.50;35.50;;;;;;5105475;28;20459;-82
2022/07/16 00:21:46;;;;;;;9.30;4.17;;;16.40;35.40;;;;;;5103462;28;20512;-81
2022/07/16 00:24:15;;;;;;;4.10;3.70;;;16.30;35.80;;;;;;5102740;28;20828;-81
2022/07/16 00:26:43;;;;;;;4.20;3.80;;;16.30;35.30;;;;;;5102964;28;20459;-83
2022/07/16 00:29:10;;;;;;;6.50;4.00;;;16.30;35.30;;;;;;5108902;28;20417;-81
2022/07/16 00:31:40;;;;;;;7.73;4.40;;;16.20;36.30;;;;;;5104946;28;20532;-82
2022/07/16 00:34:08;;;;;;;4.37;3.97;;;16.20;37.00;;;;;;5117550;28;20499;-81
2022/07/16 00:36:36;;;;;;;5.03;3.87;;;16.10;37.60;;;;;;5119088;28;20477;-81
2022/07/16 00:39:03;;;;;;;9.20;4.30;;;16.00;37.70;;;;;;5119108;28;20456;-81
2022/07/16 00:41:32;;;;;;;7.37;4.83;;;16.00;38.00;;;;;;5119192;28;20431;-82
2022/07/16 00:44:02;;;;;;;4.83;4.33;;;16.00;38.50;;;;;;5118581;28;20493;-82
2022/07/16 00:46:29;;;;;;;4.50;4.10;;;16.00;39.10;;;;;;5118601;28;20473;-80
2022/07/16 00:48:57;;;;;;;4.27;3.87;;;15.90;39.10;;;;;;5118626;28;20410;-81
2022/07/16 00:51:24;;;;;;;5.30;4.10;;;15.90;39.30;;;;;;5118581;28;20499;-81
2022/07/16 00:53:52;;;;;;;7.83;4.47;;;15.80;39.80;;;;;;5118661;28;20465;-81
2022/07/16 00:56:19;;;;;;;4.33;3.90;;;15.80;40.00;;;;;;5114095;28;20453;-81
2022/07/16 00:58:48;;;;;;;3.70;3.40;;;15.70;40.20;;;;;;5088982;28;20521;-81
2022/07/16 01:01:17;;;;;;;5.63;4.40;;;15.70;40.40;;;;;;5096469;28;20508;-81
2022/07/16 01:03:45;;;;;;;4.30;3.70;;;15.60;40.30;;;;;;5117528;28;20422;-81
2022/07/16 01:06:14;;;;;;;4.80;4.30;;;15.50;40.50;;;;;;5118076;28;20451;-81
2022/07/16 01:08:43;;;;;;;4.53;4.03;;;15.60;41.00;;;;;;5117989;28;20439;-81
2022/07/16 01:11:12;;;;;;;4.97;4.22;;;15.60;40.90;;;;;;5115232;28;20535;-81
2022/07/16 01:13:41;;;;;;;5.90;4.03;;;15.60;41.40;;;;;;5108422;28;20320;-80
2022/07/16 01:16:10;;;;;;;9.17;3.90;;;15.60;41.60;;;;;;5104429;28;20213;-81
2022/07/16 01:18:38;;;;;;;4.60;4.13;;;15.50;41.80;;;;;;5104599;28;20422;-82
2022/07/16 01:21:06;;;;;;;4.87;4.47;;;15.50;42.30;;;;;;5105276;28;20215;-81
2022/07/16 01:23:34;;;;;;;5.57;4.53;;;15.40;42.50;;;;;;5103012;28;21152;-81
2022/07/16 01:26:01;;;;;;;4.97;4.28;;;15.30;42.90;;;;;;5103284;28;20587;-81
2022/07/16 01:28:29;;;;;;;7.10;4.40;;;15.30;43.20;;;;;;5103572;28;20209;-81
2022/07/16 01:30:56;;;;;;;5.60;4.13;;;15.30;44.40;;;;;;5103660;28;20432;-81
2022/07/16 01:33:24;;;;;;;4.90;4.43;;;15.20;44.40;;;;;;5104390;28;20587;-80
2022/07/16 01:35:55;;;;;;;4.70;4.20;;;15.20;44.40;;;;;;5104003;28;20453;-82
2022/07/16 01:38:23;;;;;;;5.17;4.67;;;15.10;44.30;;;;;;5111342;28;20453;-81
2022/07/16 01:40:54;;;;;;;5.67;4.00;;;15.10;44.30;;;;;;5114266;28;20443;-81
2022/07/16 01:43:23;;;;;;;6.00;4.43;;;15.00;45.30;;;;;;5117779;28;20465;-80
2022/07/16 01:45:51;;;;;;;5.50;4.60;;;15.00;45.60;;;;;;5106025;22;20458;-73
2022/07/16 01:48:19;;;;;;;4.40;4.00;;;15.00;45.60;;;;;;5090220;28;20209;-75
2022/07/16 01:50:46;;;;;;;5.88;4.28;;;15.00;46.40;;;;;;5093547;28;20443;-75
2022/07/16 01:53:13;;;;;;;7.23;4.47;;;14.90;46.70;;;;;;5097565;28;20248;-75
2022/07/16 01:55:42;;;;;;;5.65;4.45;;;14.90;47.00;;;;;;5096606;28;20526;-75
2022/07/16 01:58:12;;;;;;;4.68;4.28;;;14.90;47.20;;;;;;5094848;28;20244;-75
2022/07/16 02:00:41;;;;;;;6.10;4.10;;;14.80;47.30;;;;;;5089018;28;20225;-75
2022/07/16 02:03:08;;;;;;;5.00;4.22;;;14.70;47.90;;;;;;5094134;28;20422;-74
2022/07/16 02:05:35;;;;;;;5.47;4.60;;;14.60;48.30;;;;;;5083091;28;20228;-75
2022/07/16 02:08:02;;;;;;;4.77;4.23;;;14.60;48.50;;;;;;5086581;28;20681;-73
2022/07/16 02:10:29;;;;;;;4.75;4.32;;;14.60;48.50;;;;;;5094018;28;20448;-75
2022/07/16 02:12:56;;;;;;;5.28;4.20;;;14.60;48.20;;;;;;5083074;28;20209;-74
2022/07/16 02:15:24;;;;;;;5.70;4.45;;;14.60;48.10;;;;;;5080217;28;20236;-77
2022/07/16 02:17:51;;;;;;;6.18;4.18;;;14.60;48.20;;;;;;5081918;28;20201;-76
2022/07/16 02:20:18;;;;;;;4.63;4.20;;;14.50;48.50;;;;;;5081745;28;20677;-75
2022/07/16 02:22:45;;;;;;;5.13;4.70;;;14.40;48.60;;;;;;5084256;28;20235;-76
2022/07/16 02:25:12;;;;;;;4.75;4.35;;;14.40;48.80;;;;;;5081911;28;20484;-77
2022/07/16 02:28:05;;;;;;;4.20;3.80;;;14.40;48.60;;;;;;5081714;28;20209;-75
2022/07/16 02:30:29;;;;;;;5.10;4.03;;;14.30;48.40;;;;;;5080852;28;20723;-73
2022/07/16 02:32:56;;;;;;;5.20;4.05;;;14.30;48.70;;;;;;5090195;28;20236;-75
2022/07/16 02:35:23;;;;;;;5.47;4.50;;;14.20;49.30;;;;;;5092976;28;20304;-73
2022/07/16 02:37:50;;;;;;;9.02;4.90;;;14.20;49.30;;;;;;5080388;28;20575;-74
2022/07/16 02:40:17;;;;;;;4.80;4.30;;;14.20;50.40;;;;;;5077484;28;20209;-73
2022/07/16 02:42:44;;;;;;;4.65;4.22;;;14.30;50.00;;;;;;5077308;28;20216;-72
2022/07/16 02:45:11;;;;;;;4.55;4.10;;;14.30;49.90;;;;;;5077117;28;20233;-76
2022/07/16 02:47:40;;;;;;;5.47;4.65;;;14.20;50.30;;;;;;5056634;28;20289;-76
2022/07/16 02:50:08;;;;;;;4.93;4.53;;;14.20;50.80;;;;;;5056821;28;20217;-76
2022/07/16 02:52:35;;;;;;;6.72;4.90;;;14.20;51.30;;;;;;5076118;28;20450;-77
2022/07/16 02:55:03;;;;;;;5.68;4.88;;;14.20;51.20;;;;;;5076913;28;20245;-76
2022/07/16 02:57:30;;;;;;;6.32;4.82;;;14.20;51.30;;;;;;5075887;28;20288;-73
2022/07/16 02:59:57;;;;;;;6.93;4.35;;;14.10;51.20;;;;;;5076445;28;20300;-73
2022/07/16 03:02:24;;;;;;;5.00;4.43;;;14.20;51.50;;;;;;5075621;28;20468;-75
2022/07/16 03:04:52;;;;;;;4.57;4.18;;;14.30;51.50;;;;;;5076387;28;20224;-75
2022/07/16 03:07:19;;;;;;;6.95;4.28;;;14.20;50.70;;;;;;5076054;28;20677;-74
2022/07/16 03:09:46;;;;;;;5.30;4.38;;;14.20;51.10;;;;;;5076557;28;20201;-73
2022/07/16 03:12:13;;;;;;;6.50;5.00;;;14.10;51.50;;;;;;5076417;28;20209;-74
2022/07/16 03:14:40;;;;;;;5.28;4.80;;;14.00;51.90;;;;;;5085060;28;20218;-74
2022/07/16 03:17:07;;;;;;;5.88;4.60;;;14.00;52.00;;;;;;5099288;28;20194;-76
2022/07/16 03:19:34;;;;;;;8.82;5.55;;;14.00;52.40;;;;;;5098243;28;20190;-72
2022/07/16 03:22:02;;;;;;;5.45;4.15;;;14.00;52.70;;;;;;5082918;28;20214;-74
2022/07/16 03:24:30;;;;;;;4.75;4.35;;;13.90;52.90;;;;;;5078285;28;20233;-73
2022/07/16 03:26:57;;;;;;;5.18;4.68;;;13.80;53.50;;;;;;5077470;28;20212;-74
2022/07/16 03:29:27;;;;;;;5.82;4.63;;;13.70;52.70;;;;;;5077726;28;20213;-76
2022/07/16 03:31:54;;;;;;;9.13;5.65;;;13.70;53.80;;;;;;5077324;28;20230;-76
2022/07/16 03:34:21;;;;;;;6.00;5.03;;;13.60;55.10;;;;;;5077963;28;20324;-75
2022/07/16 03:36:48;;;;;;;5.53;4.97;;;13.50;54.70;;;;;;5077037;28;20893;-76
2022/07/16 03:39:17;;;;;;;6.70;4.97;;;13.50;55.10;;;;;;5076374;28;20205;-73
2022/07/16 03:41:43;;;;;;;6.45;4.78;;;13.40;55.40;;;;;;5076292;28;20206;-75
2022/07/16 03:44:12;;;;;;;5.55;4.65;;;13.30;55.90;;;;;;5076515;28;20328;-75
2022/07/16 03:46:39;;;;;;;5.70;5.05;;;13.30;56.30;;;;;;5076892;28;20216;-75
2022/07/16 03:49:06;;;;;;;5.45;4.90;;;13.40;56.50;;;;;;5077267;28;20202;-74
2022/07/16 03:51:33;;;;;;;5.63;5.13;;;13.40;55.50;;;;;;5077005;28;20198;-73
2022/07/16 03:54:00;;;;;;;5.97;4.72;;;13.30;54.40;;;;;;5081765;28;20639;-76
2022/07/16 03:56:28;;;;;;;5.18;4.30;;;13.40;54.20;;;;;;5081952;28;20213;-77
2022/07/16 03:58:55;;;;;;;6.72;4.70;;;13.50;52.50;;;;;;5079920;28;20209;-75
2022/07/16 04:01:22;;;;;;;5.10;4.60;;;13.50;52.50;;;;;;5076284;28;20204;-75
2022/07/16 04:03:50;;;;;;;5.00;4.20;;;13.60;52.60;;;;;;5076658;28;20297;-73
2022/07/16 04:06:17;;;;;;;7.15;4.32;;;13.60;52.60;;;;;;5076068;28;20213;-76
2022/07/16 04:08:44;;;;;;;5.00;4.50;;;13.60;52.50;;;;;;5076124;28;20634;-74
2022/07/16 04:11:10;;;;;;;5.50;4.10;;;13.60;52.60;;;;;;5076306;28;20297;-73
2022/07/16 04:13:40;;;;;;;5.28;4.30;;;13.70;52.70;;;;;;5078257;28;20217;-74
2022/07/16 04:16:07;;;;;;;8.57;4.90;;;13.70;51.80;;;;;;5079757;28;20673;-75
2022/07/16 04:18:35;;;;;;;5.68;4.35;;;13.70;51.70;;;;;;5094716;28;20202;-75
2022/07/16 04:21:03;;;;;;;5.40;4.35;;;13.70;52.70;;;;;;5096594;28;20219;-76
2022/07/16 04:23:30;;;;;;;5.20;4.25;;;13.70;52.70;;;;;;5084838;28;20286;-76
2022/07/16 04:25:57;;;;;;;4.60;4.20;;;13.60;52.60;;;;;;5076750;28;20217;-76
2022/07/16 04:28:24;;;;;;;4.82;4.43;;;13.60;52.60;;;;;;5076942;28;20220;-75
2022/07/16 04:30:52;;;;;;;7.07;4.75;;;13.60;52.60;;;;;;5076547;28;20197;-74
2022/07/16 04:33:19;;;;;;;9.80;4.30;;;13.70;52.60;;;;;;5076221;28;20205;-75
2022/07/16 04:35:48;;;;;;;6.30;4.53;;;13.80;51.80;;;;;;5075502;28;20252;-75
2022/07/16 04:38:15;;;;;;;6.50;3.90;;;14.10;51.30;;;;;;5075770;28;20252;-75
2022/07/16 04:40:42;;;;;;;7.40;4.10;;;14.20;49.40;;;;;;5076000;28;20599;-75
2022/07/16 04:43:09;;;;;;;4.63;4.03;;;14.10;49.00;;;;;;5076377;28;20304;-74
2022/07/16 04:45:36;;;;;;;5.25;4.50;;;14.20;49.30;;;;;;5075635;28;20230;-76
2022/07/16 04:48:05;;;;;;;4.38;3.83;;;14.20;48.70;;;;;;5075755;28;20271;-73
2022/07/16 04:50:32;;;;;;;6.60;4.57;;;14.40;48.20;;;;;;5074993;28;20206;-77
2022/07/16 04:52:59;;;;;;;6.38;4.40;;;14.50;48.00;;;;;;5076109;28;20209;-76
2022/07/16 04:55:26;;;;;;;4.72;4.28;;;14.60;48.00;;;;;;5074861;28;20230;-75
2022/07/16 04:57:53;;;;;;;4.05;3.75;;;14.70;47.20;;;;;;5075647;28;20201;-73
2022/07/16 05:00:20;;;;;;;8.93;4.30;;;14.80;47.10;;;;;;5075354;28;20202;-76
2022/07/16 05:02:58;;;;;;;4.63;4.20;;;15.00;46.10;;;;;;5076167;28;20205;-74
2022/07/16 05:05:29;;;;;;;4.87;3.80;;;15.40;44.50;;;;;;5077181;28;20256;-72
2022/07/16 05:07:56;;;;;;;5.67;3.90;;;15.80;43.60;;;;;;5077493;28;20444;-76
2022/07/16 05:10:24;;;;;;;4.83;3.47;;;16.50;41.40;;;;;;5076635;28;20501;-74
2022/07/16 05:12:51;;;;;;;3.60;3.30;;;17.10;38.40;;;;;;5075815;28;20434;-76
2022/07/16 05:15:18;;;;;;;3.50;3.20;;;17.50;38.70;;;;;;5074892;28;21015;-76
2022/07/16 05:17:44;;;;;;;3.57;3.27;;;18.60;35.40;;;;;;5075824;28;21136;-76
2022/07/16 05:20:12;;;;;;;4.20;3.80;;;18.90;34.80;;;;;;5076967;28;20913;-73
2022/07/16 05:22:40;;;;;;;4.53;4.10;;;19.50;33.60;;;;;;5061942;28;20998;-74
2022/07/16 05:25:09;;;;;;;6.20;3.43;;;20.20;31.20;;;;;;5072517;28;20455;-75
2022/07/16 05:27:36;;;;;;;3.73;3.43;;;21.10;29.70;;;;;;5095236;28;20411;-73
2022/07/16 05:30:04;;;;;;;3.33;3.03;;;20.70;29.40;;;;;;5087683;28;20490;-77
2022/07/16 05:32:31;;;;;;;5.13;3.27;;;21.60;28.50;;;;;;5076552;28;20427;-73
2022/07/16 05:34:58;;;;;;;4.23;2.80;;;21.60;28.00;;;;;;5075430;28;21038;-73
2022/07/16 05:37:25;;;;;;;5.13;3.40;;;21.40;28.30;;;;;;5074919;28;20926;-76
2022/07/16 05:39:54;;;;;;;3.93;3.20;;;21.50;27.80;;;;;;5075062;28;20798;-76
2022/07/16 05:42:20;;;;;;;3.53;3.17;;;22.40;26.80;;;;;;5073815;28;20545;-76
2022/07/16 05:44:47;;;;;;;7.67;2.87;;;22.90;26.30;;;;;;5074790;28;20820;-76
2022/07/16 05:47:14;;;;;;;6.50;3.10;;;23.40;25.00;;;;;;5077087;28;20488;-75
2022/07/16 05:49:41;;;;;;;4.53;3.00;;;23.00;25.80;;;;;;5075550;28;20531;-72
2022/07/16 05:52:08;;;;;;;3.73;3.13;;;22.50;26.50;;;;;;5074128;28;20475;-73
2022/07/16 05:54:35;;;;;;;6.20;3.30;;;22.30;26.50;;;;;;5073989;28;20549;-73
2022/07/16 05:57:04;;;;;;;5.33;3.40;;;21.90;27.30;;;;;;5074113;28;20511;-75
2022/07/16 05:59:30;;;;;;;2.83;2.63;;;21.40;27.60;;;;;;5075289;28;20427;-76
2022/07/16 06:01:57;;;;;;;4.23;3.10;;;21.60;27.20;;;;;;5074302;28;20456;-73
2022/07/16 06:04:25;;;;;;;4.33;3.17;;;21.50;27.30;;;;;;5074622;28;20442;-73
2022/07/16 06:06:52;;;;;;;4.07;2.90;;;22.10;27.10;;;;;;5074389;28;20475;-75
2022/07/16 06:09:19;;;;;;;8.70;3.13;;;22.70;25.00;;;;;;5074825;28;20471;-75
2022/07/16 06:11:46;;;;;;;3.33;2.60;;;22.40;25.80;;;;;;5074354;28;20902;-75
2022/07/16 06:14:14;;;;;;;4.43;3.10;;;21.90;26.10;;;;;;5075562;28;20458;-76
2022/07/16 06:16:42;;;;;;;4.83;2.90;;;22.00;26.20;;;;;;5074722;28;20532;-75
2022/07/16 06:19:09;;;;;;;5.30;2.53;;;23.10;24.70;;;;;;5078953;28;20429;-75
2022/07/16 06:21:36;;;;;;;8.37;2.80;;;23.90;23.50;;;;;;5076754;28;20435;-75
2022/07/16 06:24:03;;;;;;;7.57;3.00;;;22.70;25.30;;;;;;5075655;28;20494;-75
2022/07/16 06:26:30;;;;;;;4.33;3.00;;;22.50;26.00;;;;;;5075540;28;20548;-75
2022/07/16 06:28:57;;;;;;;5.03;3.33;;;23.40;24.30;;;;;;5075742;28;20438;-76
2022/07/16 06:31:26;;;;;;;4.03;2.50;;;23.90;23.50;;;;;;5077585;28;20485;-75
2022/07/16 06:33:53;;;;;;;6.10;2.80;;;23.80;23.40;;;;;;5076140;28;20463;-76
2022/07/16 06:36:20;;;;;;;2.97;2.50;;;23.80;23.40;;;;;;5077867;28;20468;-77
2022/07/16 06:38:47;;;;;;;6.03;2.90;;;23.80;23.40;;;;;;5085502;28;20431;-76
2022/07/16 06:41:19;;;;;;;4.40;2.43;;;22.70;24.10;;;;;;5084341;28;20460;-76
2022/07/16 06:43:46;;;;;;;4.43;2.90;;;22.50;23.20;;;;;;5076280;28;20444;-75
2022/07/16 06:46:13;;;;;;;3.70;3.03;;;23.50;23.20;;;;;;5056136;28;20915;-73
2022/07/16 06:48:41;;;;;;;2.70;2.20;;;24.50;21.10;;;;;;5056536;28;20478;-75
2022/07/16 06:51:08;;;;;;;3.00;2.40;;;24.90;20.50;;;;;;5057138;28;20953;-75
2022/07/16 06:53:38;;;;;;;2.63;2.10;;;24.70;21.00;;;;;;5057192;28;20519;-74
2022/07/16 06:56:06;;;;;;;7.90;2.50;;;25.10;20.20;;;;;;5060594;28;20510;-75
2022/07/16 06:58:33;;;;;;;3.63;2.27;;;25.50;19.90;;;;;;5068518;28;20440;-73
2022/07/16 07:01:01;;;;;;;4.40;2.10;;;24.50;20.80;;;;;;5067424;28;20991;-73
2022/07/16 07:03:28;;;;;;;2.80;2.17;;;23.80;21.70;;;;;;5057956;28;20453;-74
2022/07/16 07:05:56;;;;;;;5.37;2.47;;;22.70;22.60;;;;;;5056467;28;20439;-78
2022/07/16 07:08:23;;;;;;;6.10;2.60;;;22.40;23.60;;;;;;5064421;28;20432;-74
2022/07/16 07:10:50;;;;;;;4.07;2.50;;;22.20;23.90;;;;;;5071148;28;20480;-74
2022/07/16 07:13:17;;;;;;;3.20;2.87;;;21.50;24.00;;;;;;5065891;28;20543;-73
2022/07/16 07:15:44;;;;;;;3.47;2.70;;;21.10;25.30;;;;;;5071562;28;20519;-74
2022/07/16 07:18:11;;;;;;;3.40;2.53;;;21.00;25.90;;;;;;5059078;28;20448;-73
2022/07/16 07:20:38;;;;;;;4.30;3.43;;;21.10;25.30;;;;;;5058858;28;20431;-73
2022/07/16 07:23:07;;;;;;;4.93;2.50;;;21.10;25.20;;;;;;5059947;28;20434;-76
2022/07/16 07:25:34;;;;;;;2.67;2.47;;;20.90;25.30;;;;;;5059341;28;20476;-75
2022/07/16 07:28:01;;;;;;;6.53;2.20;;;20.80;25.70;;;;;;5060193;28;20428;-74
2022/07/16 07:30:28;;;;;;;3.03;2.73;;;20.80;25.40;;;;;;5060727;28;20493;-75
2022/07/16 07:32:55;;;;;;;2.43;2.27;;;21.00;25.60;;;;;;5058796;28;20449;-75
2022/07/16 07:35:22;;;;;;;2.43;2.10;;;21.10;25.00;;;;;;5056847;28;20514;-75
2022/07/16 07:37:49;;;;;;;4.20;3.20;;;21.30;24.80;;;;;;5057259;28;20512;-73
2022/07/16 07:40:17;;;;;;;4.13;2.00;;;21.30;25.00;;;;;;5057091;28;20453;-77
2022/07/16 07:42:44;;;;;;;4.40;2.50;;;21.30;23.90;;;;;;5057432;28;20568;-75
2022/07/16 07:45:11;;;;;;;3.53;2.33;;;21.30;23.80;;;;;;5068049;28;20486;-75
2022/07/16 07:47:38;;;;;;;4.30;2.27;;;21.40;24.00;;;;;;5075910;28;20443;-74
2022/07/16 07:50:07;;;;;;;4.03;2.50;;;21.40;24.20;;;;;;5075055;28;20911;-74
2022/07/16 07:52:34;;;;;;;3.60;2.70;;;21.50;23.90;;;;;;5075656;28;20422;-75
2022/07/16 07:55:01;;;;;;;5.70;2.40;;;21.20;24.20;;;;;;5077030;28;20492;-75
2022/07/16 07:57:29;;;;;;;2.57;2.37;;;21.10;24.60;;;;;;5074897;28;20431;-77
2022/07/16 07:59:56;;;;;;;3.00;2.40;;;21.30;24.50;;;;;;5075473;28;20448;-75
2022/07/16 08:02:23;;;;;;;2.57;2.00;;;21.40;23.20;;;;;;5074701;28;20470;-73
2022/07/16 08:04:49;;;;;;;2.50;2.30;;;21.50;22.40;;;;;;5075402;28;20473;-73
2022/07/16 08:07:16;;;;;;;6.67;2.13;;;21.60;22.80;;;;;;5075399;28;20434;-73
2022/07/16 08:09:46;;;;;;;7.47;2.40;;;21.70;23.60;;;;;;5076182;28;20456;-74
2022/07/16 08:12:13;;;;;;;4.43;1.83;;;21.90;22.80;;;;;;5074467;28;20433;-75
2022/07/16 08:14:41;;;;;;;4.37;1.57;;;21.90;22.60;;;;;;5075103;28;20864;-74
2022/07/16 08:17:08;;;;;;;3.93;2.10;;;22.10;22.60;;;;;;5079684;28;20830;-75
2022/07/16 08:19:35;;;;;;;1.93;1.80;;;22.10;22.20;;;;;;5085557;28;20431;-74
2022/07/16 08:22:02;;;;;;;2.03;1.93;;;22.20;21.50;;;;;;5080722;28;20424;-75
2022/07/16 08:27:13;;;;;;;2.00;1.80;;;21.90;21.40;;;;;;5088094;28;20434;-73
2022/07/16 08:29:42;;;;;;;7.30;1.70;;;21.80;22.00;;;;;;5087858;28;20469;-76
2022/07/16 08:32:09;;;;;;;5.83;1.93;;;22.00;22.10;;;;;;5090547;28;20956;-75
2022/07/16 08:34:36;;;;;;;3.90;1.50;;;22.10;22.10;;;;;;5091185;28;20543;-75
2022/07/16 08:37:07;;;;;;;6.17;1.73;;;22.20;22.20;;;;;;5080610;28;20526;-75
2022/07/16 08:39:34;;;;;;;4.70;2.07;;;22.40;21.80;;;;;;5068787;28;20461;-74
2022/07/16 08:42:02;;;;;;;4.13;2.00;;;22.50;21.20;;;;;;5069632;28;20464;-74
2022/07/16 08:44:30;;;;;;;3.53;1.80;;;22.50;20.40;;;;;;5085185;28;20818;-76
2022/07/16 08:46:59;;;;;;;3.60;1.50;;;22.50;21.40;;;;;;5089041;28;20936;-76
2022/07/16 08:49:28;;;;;;;3.20;1.60;;;22.60;21.00;;;;;;5087350;28;20457;-75
2022/07/16 08:51:59;;;;;;;2.23;1.60;;;22.70;21.40;;;;;;5088566;28;20476;-74
2022/07/16 08:54:27;;;;;;;2.00;1.80;;;22.40;21.90;;;;;;5091361;28;20442;-75
2022/07/16 08:56:54;;;;;;;2.97;1.83;;;22.40;21.60;;;;;;5092070;28;20467;-76
2022/07/16 08:59:22;;;;;;;4.60;1.73;;;22.60;21.50;;;;;;5092693;28;20517;-77
2022/07/16 09:01:49;;;;;;;3.30;1.73;;;22.90;21.20;;;;;;5091940;28;20445;-74
2022/07/16 09:04:17;;;;;;;4.40;1.73;;;22.80;21.50;;;;;;5087180;28;20475;-76
2022/07/16 09:06:44;;;;;;;4.63;1.73;;;22.50;21.70;;;;;;5073416;28;20461;-74
2022/07/16 09:09:11;;;;;;;6.40;1.87;;;22.50;21.90;;;;;;5084802;28;20431;-76
2022/07/16 09:11:38;;;;;;;2.10;1.90;;;22.70;21.70;;;;;;5082449;28;20911;-76
2022/07/16 09:14:08;;;;;;;2.80;1.77;;;22.80;21.70;;;;;;5082630;28;20474;-75
2022/07/16 09:16:36;;;;;;;4.33;1.63;;;22.90;21.00;;;;;;5082725;28;20491;-75
2022/07/16 09:19:06;;;;;;;2.90;1.70;;;23.10;21.00;;;;;;5078830;28;20448;-76
2022/07/16 09:21:35;;;;;;;4.73;1.53;;;23.40;20.50;;;;;;5079674;28;20449;-75
2022/07/16 09:24:02;;;;;;;2.10;1.70;;;23.20;20.40;;;;;;5080280;28;20460;-77
2022/07/16 09:26:29;;;;;;;3.47;2.30;;;23.10;20.70;;;;;;5078832;28;20551;-77
2022/07/16 09:29:01;;;;;;;3.57;1.97;;;23.20;20.80;;;;;;5080135;28;20466;-77
2022/07/16 09:31:34;;;;;;;2.97;2.00;;;23.30;20.60;;;;;;5080484;28;20517;-76
2022/07/16 09:34:02;;;;;;;3.47;1.90;;;23.40;20.20;;;;;;5078795;28;20474;-73
2022/07/16 09:36:29;;;;;;;2.27;2.07;;;23.60;20.20;;;;;;5075487;28;20603;-74
2022/07/16 09:38:57;;;;;;;5.53;1.93;;;23.60;19.70;;;;;;5075258;28;20794;-76
2022/07/16 09:41:24;;;;;;;2.13;1.90;;;23.40;20.40;;;;;;5072993;28;20457;-74
2022/07/16 09:43:51;;;;;;;2.17;1.83;;;23.30;20.10;;;;;;5073027;28;20429;-74
2022/07/16 09:46:20;;;;;;;2.93;2.37;;;23.20;19.60;;;;;;5073956;28;20452;-75
2022/07/16 09:48:47;;;;;;;4.50;2.00;;;23.10;20.50;;;;;;5073701;28;20878;-74
2022/07/16 09:51:17;;;;;;;1.80;1.50;;;23.40;20.30;;;;;;5073443;28;20449;-75
2022/07/16 09:53:46;;;;;;;2.20;1.83;;;23.60;20.00;;;;;;5073080;28;20463;-75
2022/07/16 09:56:16;;;;;;;1.70;1.60;;;23.80;19.30;;;;;;5073589;28;20491;-74
2022/07/16 09:58:47;;;;;;;2.40;1.70;;;24.00;19.90;;;;;;5073124;28;20460;-73
2022/07/16 10:01:15;;;;;;;2.63;1.87;;;24.10;19.20;;;;;;5072877;28;20451;-73
2022/07/16 10:03:42;;;;;;;3.50;1.70;;;24.00;18.60;;;;;;5075257;28;20426;-74
2022/07/16 10:06:09;;;;;;;5.77;1.80;;;24.10;18.20;;;;;;5074372;28;20816;-73
2022/07/16 10:08:36;;;;;;;2.60;1.90;;;24.20;18.30;;;;;;5076043;28;20559;-74
2022/07/16 10:11:04;;;;;;;4.20;2.10;;;24.20;18.30;;;;;;5074078;28;20796;-73
2022/07/16 10:13:33;;;;;;;2.20;1.50;;;24.40;18.10;;;;;;5075090;28;20462;-76
2022/07/16 10:16:01;;;;;;;1.90;1.80;;;24.60;18.20;;;;;;5056092;28;20493;-71
2022/07/16 10:18:36;;;;;;;4.73;1.53;;;24.50;17.60;;;;;;5058000;28;20828;-73
2022/07/16 10:21:12;;;;;;;1.60;1.50;;;24.60;17.90;;;;;;5070210;28;20418;-72
2022/07/16 10:23:41;;;;;;;1.73;1.33;;;24.40;17.50;;;;;;5072077;28;20452;-74
2022/07/16 10:26:14;;;;;;;1.83;1.40;;;24.50;16.70;;;;;;5074139;28;20455;-72
2022/07/16 10:28:45;;;;;;;2.13;1.50;;;24.70;16.70;;;;;;5075971;28;20455;-73
2022/07/16 10:31:35;;;;;;;1.60;1.23;;;24.80;15.60;;;;;;5082769;28;20413;-72
2022/07/16 10:34:33;;;;;;;2.00;1.17;;;25.00;15.80;;;;;;5084918;28;20948;-73
2022/07/16 10:37:00;;;;;;;1.40;1.20;;;24.90;15.70;;;;;;5082519;28;20465;-74
2022/07/16 10:39:28;;;;;;;2.23;1.50;;;25.00;15.30;;;;;;5084691;28;20426;-73
2022/07/16 10:41:57;;;;;;;2.13;1.13;;;25.10;15.10;;;;;;5082711;28;20454;-73
2022/07/16 10:44:27;;;;;;;2.97;1.43;;;25.30;14.80;;;;;;5079640;28;20588;-74
2022/07/16 10:46:56;;;;;;;1.30;1.20;;;25.40;14.90;;;;;;5076756;28;20433;-73
2022/07/16 10:49:24;;;;;;;1.60;1.50;;;25.40;15.00;;;;;;5079614;28;20936;-72
2022/07/16 10:51:58;;;;;;;2.10;1.53;;;25.30;15.50;;;;;;5080410;28;20446;-73
2022/07/16 10:54:25;;;;;;;2.97;1.47;;;25.50;14.60;;;;;;5076405;28;20466;-73
2022/07/16 10:56:54;;;;;;;2.50;1.40;;;25.30;15.50;;;;;;5076238;28;20463;-73
2022/07/16 10:59:23;;;;;;;1.47;1.37;;;25.30;15.90;;;;;;5077716;28;20423;-73
2022/07/16 11:01:53;;;;;;;3.37;1.40;;;25.30;15.90;;;;;;5081710;28;20454;-74
2022/07/16 11:04:28;;;;;;;1.37;1.23;;;25.30;15.70;;;;;;5081306;28;20450;-75
2022/07/16 11:06:56;;;;;;;2.03;1.40;;;25.00;15.80;;;;;;5079387;28;20453;-75
2022/07/16 11:09:28;;;;;;;1.50;1.37;;;25.20;15.90;;;;;;5080638;28;20422;-74
2022/07/16 11:11:56;;;;;;;2.03;1.17;;;25.30;16.00;;;;;;5082613;28;20947;-75
2022/07/16 11:14:30;;;;;;;1.43;1.33;;;25.30;15.90;;;;;;5081171;28;20551;-74
2022/07/16 11:16:58;;;;;;;7.63;2.07;;;25.40;16.00;;;;;;5080286;28;20872;-73
2022/07/16 11:19:26;;;;;;;1.27;1.17;;;25.30;15.90;;;;;;5080971;28;20888;-75
2022/07/16 11:21:55;;;;;;;2.47;1.33;;;25.40;16.00;;;;;;5080641;28;20452;-75
2022/07/16 11:24:22;;;;;;;2.03;1.93;;;25.40;16.00;;;;;;5078811;28;20483;-74
2022/07/16 11:26:51;;;;;;;2.33;1.60;;;25.30;15.90;;;;;;5079539;28;20429;-74
2022/07/16 11:29:19;;;;;;;1.30;1.30;;;25.20;15.90;;;;;;5079808;28;20798;-74
2022/07/16 11:31:46;;;;;;;8.10;1.97;;;25.30;15.90;;;;;;5080085;28;20452;-74
2022/07/16 11:34:16;;;;;;;2.93;1.80;;;25.40;16.00;;;;;;5075935;28;20489;-74
2022/07/16 11:36:44;;;;;;;2.60;1.70;;;25.50;16.00;;;;;;5075961;28;20462;-72
2022/07/16 11:39:13;;;;;;;5.30;2.40;;;25.40;16.00;;;;;;5076748;28;20431;-72
2022/07/16 11:41:41;;;;;;;4.07;1.90;;;25.50;16.00;;;;;;5076397;28;20474;-73
2022/07/16 11:44:09;;;;;;;1.57;1.40;;;25.70;15.90;;;;;;5078030;28;21185;-73
2022/07/16 11:46:43;;;;;;;2.80;1.50;;;25.80;16.20;;;;;;5076030;28;20494;-73
2022/07/16 11:49:10;;;;;;;4.73;1.63;;;25.90;16.30;;;;;;5088504;28;20426;-73
2022/07/16 11:51:41;;;;;;;1.73;1.40;;;26.10;16.40;;;;;;5095491;28;20463;-74
2022/07/16 11:54:08;;;;;;;1.60;1.50;;;26.20;16.40;;;;;;5089590;28;20506;-74
2022/07/16 11:56:37;;;;;;;2.33;2.13;;;26.20;15.20;;;;;;5087748;28;20483;-74
2022/07/16 11:59:05;;;;;;;2.43;1.70;;;26.30;15.20;;;;;;5077176;28;20518;-74
2022/07/16 12:01:33;;;;;;;1.80;1.70;;;26.10;14.90;;;;;;5077645;28;20453;-75
2022/07/16 12:04:00;;;;;;;2.50;1.40;;;25.90;15.20;;;;;;5075129;28;20886;-74
2022/07/16 12:06:27;;;;;;;1.80;1.70;;;25.50;16.00;;;;;;5075581;28;20555;-74
2022/07/16 12:08:56;;;;;;;5.27;2.53;;;25.90;15.50;;;;;;5075644;28;20492;-73
2022/07/16 12:11:31;;;;;;;6.57;1.80;;;26.10;15.30;;;;;;5075326;28;20543;-74
2022/07/16 12:13:57;;;;;;;2.17;1.97;;;26.50;14.90;;;;;;5084050;28;20464;-73
2022/07/16 12:16:26;;;;;;;2.50;1.87;;;26.60;14.20;;;;;;5082361;28;20450;-73
2022/07/16 12:19:02;;;;;;;3.60;2.40;;;26.30;13.40;;;;;;5071120;28;20912;-74
2022/07/16 12:21:30;;;;;;;6.73;5.30;;;26.50;13.90;;;;;;5070390;28;20447;-73
2022/07/16 12:23:59;;;;;;;2.23;1.53;;;26.60;12.90;;;;;;5068351;28;20434;-74
2022/07/16 12:26:34;;;;;;;4.93;2.70;;;26.40;13.60;;;;;;5074506;28;20942;-72
2022/07/16 12:29:01;;;;;;;1.60;1.47;;;26.50;13.60;;;;;;5074466;28;20484;-72
2022/07/16 12:31:29;;;;;;;3.90;1.90;;;26.70;13.80;;;;;;5074167;28;20819;-72
2022/07/16 12:33:57;;;;;;;3.10;1.77;;;26.70;14.00;;;;;;5075850;28;20517;-74
2022/07/16 12:36:32;;;;;;;3.30;1.90;;;26.20;14.40;;;;;;5075375;28;21010;-73
2022/07/16 12:39:02;;;;;;;10.17;7.27;;;26.00;14.90;;;;;;5075477;28;20934;-73
2022/07/16 12:41:32;;;;;;;2.47;2.30;;;26.30;15.00;;;;;;5074793;28;20492;-73
2022/07/16 12:44:01;;;;;;;2.10;1.70;;;26.30;15.40;;;;;;5074932;28;20456;-73
2022/07/16 12:46:30;;;;;;;2.53;2.13;;;26.40;15.40;;;;;;5074519;28;20446;-73
2022/07/16 12:48:58;;;;;;;5.13;3.10;;;26.60;15.50;;;;;;5073446;28;20999;-73
2022/07/16 12:51:28;;;;;;;3.00;2.67;;;26.80;15.00;;;;;;5073052;28;20453;-73
2022/07/16 12:53:56;;;;;;;3.47;3.17;;;26.40;15.80;;;;;;5073989;28;20461;-73
2022/07/16 12:59:09;;;;;;;3.30;2.10;;;26.80;15.70;;;;;;5077424;28;20421;-80